Time;durP1;ratioP1;P1;durP2;ratioP2;P2;SDS_P1;SDS_P2;PMS_P1;PMS_P2;Temp;Humidity;BMP_temperature;BMP_pressure;BME280_temperature;BME280_humidity;BME280_pressure;Samples;Min_cycle;Max_cycle;Signal;HPM_P1;HPM_P2
2022/09/02 00:02:07;;;;;;;1.40;1.00;;;19.30;73.00;;;;;;6131160;23;20455;-79
2022/09/02 00:04:35;;;;;;;1.47;0.90;;;19.30;72.90;;;;;;6134875;23;20424;-80
2022/09/02 00:07:04;;;;;;;1.40;0.90;;;19.40;72.80;;;;;;6129520;23;20471;-79
2022/09/02 00:09:31;;;;;;;1.43;0.90;;;19.30;73.10;;;;;;6141932;23;20429;-79
2022/09/02 00:11:58;;;;;;;1.43;0.97;;;19.30;73.30;;;;;;6125354;23;20758;-79
2022/09/02 00:14:28;;;;;;;1.40;0.90;;;19.30;73.40;;;;;;6126348;23;20426;-78
2022/09/02 00:16:55;;;;;;;1.40;0.90;;;19.30;73.60;;;;;;6126244;23;20493;-80
2022/09/02 00:19:26;;;;;;;1.43;0.90;;;19.30;73.40;;;;;;6138689;23;20422;-80
2022/09/02 00:21:55;;;;;;;1.50;0.90;;;19.30;73.80;;;;;;6128347;23;20656;-79
2022/09/02 00:24:24;;;;;;;1.47;0.97;;;19.20;74.10;;;;;;6127114;23;20437;-78
2022/09/02 00:26:52;;;;;;;1.40;0.90;;;19.20;74.20;;;;;;6128146;23;20480;-79
2022/09/02 00:29:20;;;;;;;1.47;0.90;;;19.20;74.20;;;;;;6147135;23;20429;-79
2022/09/02 00:31:51;;;;;;;1.40;0.90;;;19.10;74.30;;;;;;6129541;23;20451;-78
2022/09/02 00:34:19;;;;;;;1.47;0.90;;;19.10;74.40;;;;;;6137699;23;20434;-79
2022/09/02 00:36:47;;;;;;;1.43;0.90;;;19.10;74.40;;;;;;6125469;23;20448;-79
2022/09/02 00:39:15;;;;;;;1.40;0.90;;;19.10;74.40;;;;;;6151156;23;20476;-79
2022/09/02 00:41:47;;;;;;;1.47;0.90;;;19.10;74.50;;;;;;6129829;23;20445;-79
2022/09/02 00:44:44;;;;;;;2.73;2.10;;;19.10;74.60;;;;;;6149981;23;20433;-80
2022/09/02 00:50:36;;;;;;;1.40;0.90;;;19.20;74.10;;;;;;6125192;23;20497;-80
2022/09/02 00:53:07;;;;;;;1.47;0.93;;;19.20;74.60;;;;;;6134425;23;20445;-79
2022/09/02 00:55:52;;;;;;;1.43;0.90;;;19.10;74.50;;;;;;6125688;23;20542;-78
2022/09/02 00:58:25;;;;;;;1.40;0.90;;;19.10;74.90;;;;;;6085013;23;20791;-79
2022/09/02 01:00:59;;;;;;;1.40;0.90;;;19.10;75.00;;;;;;6094914;23;20407;-78
2022/09/02 01:03:30;;;;;;;1.43;0.90;;;19.10;75.10;;;;;;6129984;23;20407;-78
2022/09/02 01:09:15;;;;;;;1.40;0.90;;;19.10;75.20;;;;;;6094587;23;20418;-79
2022/09/02 01:11:46;;;;;;;1.40;0.97;;;19.00;75.10;;;;;;6090486;23;20789;-80
2022/09/02 01:14:16;;;;;;;1.43;0.90;;;19.00;75.50;;;;;;6106574;23;20906;-80
2022/09/02 01:16:47;;;;;;;1.40;0.90;;;19.00;75.20;;;;;;6096209;23;20430;-79
2022/09/02 01:19:23;;;;;;;1.40;0.97;;;19.00;75.40;;;;;;6107871;23;20430;-79
2022/09/02 01:21:53;;;;;;;1.40;0.90;;;19.00;75.30;;;;;;6108062;23;20500;-77
2022/09/02 01:24:22;;;;;;;1.47;0.90;;;19.00;75.50;;;;;;6119444;23;20502;-78
2022/09/02 01:26:57;;;;;;;1.50;1.10;;;19.00;75.40;;;;;;6099113;23;20429;-77
2022/09/02 01:29:29;;;;;;;1.40;0.90;;;19.00;75.40;;;;;;6109651;23;20461;-79
2022/09/02 01:31:57;;;;;;;1.50;0.90;;;19.00;75.60;;;;;;6104399;23;20449;-79
2022/09/02 01:34:34;;;;;;;1.43;1.00;;;19.00;76.00;;;;;;6116798;23;20418;-78
2022/09/02 01:37:03;;;;;;;1.47;0.90;;;19.00;75.80;;;;;;6119340;23;20452;-78
2022/09/02 01:39:30;;;;;;;1.43;0.97;;;19.00;76.00;;;;;;6114576;23;20419;-78
2022/09/02 01:41:59;;;;;;;1.40;0.90;;;19.00;76.10;;;;;;6100002;23;20447;-78
2022/09/02 01:44:27;;;;;;;1.40;0.90;;;19.00;75.70;;;;;;6106182;23;20818;-79
2022/09/02 01:46:54;;;;;;;1.40;0.90;;;19.00;76.10;;;;;;6112206;23;20901;-79
2022/09/02 01:49:34;;;;;;;1.40;0.90;;;19.00;76.00;;;;;;6128440;23;20968;-78
2022/09/02 01:52:05;;;;;;;1.40;0.90;;;18.90;76.30;;;;;;6118975;23;20448;-78
2022/09/02 01:54:32;;;;;;;1.47;0.90;;;18.90;76.40;;;;;;6124377;23;20450;-77
2022/09/02 01:57:05;;;;;;;1.40;0.90;;;18.90;76.50;;;;;;6113153;23;20479;-77
2022/09/02 01:59:33;;;;;;;1.50;1.00;;;18.90;76.60;;;;;;6114593;23;20431;-78
2022/09/02 02:02:01;;;;;;;1.40;0.90;;;18.90;76.40;;;;;;6108001;23;20517;-79
2022/09/02 02:04:28;;;;;;;1.43;0.90;;;18.90;76.10;;;;;;6106065;23;20427;-79
2022/09/02 02:06:56;;;;;;;1.47;0.90;;;18.90;75.70;;;;;;6100411;23;20447;-78
2022/09/02 02:09:31;;;;;;;1.47;1.00;;;18.90;76.20;;;;;;6100359;23;20925;-79
2022/09/02 02:12:01;;;;;;;1.43;1.00;;;18.80;76.10;;;;;;6112137;23;20466;-78
2022/09/02 02:14:30;;;;;;;1.50;1.00;;;18.90;76.20;;;;;;6112337;23;20462;-80
2022/09/02 02:16:57;;;;;;;1.50;1.00;;;18.80;76.00;;;;;;6111205;23;20516;-78
2022/09/02 02:19:27;;;;;;;1.43;0.90;;;18.80;76.30;;;;;;6118737;23;20426;-79
2022/09/02 02:21:55;;;;;;;1.50;1.00;;;18.80;76.40;;;;;;6100451;23;20437;-79
2022/09/02 02:24:26;;;;;;;1.40;0.90;;;18.80;76.20;;;;;;6109453;23;20422;-79
2022/09/02 02:27:04;;;;;;;1.50;1.00;;;18.80;76.00;;;;;;6100046;23;20917;-78
2022/09/02 02:29:32;;;;;;;1.43;1.00;;;18.80;76.20;;;;;;6099823;23;20426;-78
2022/09/02 02:31:59;;;;;;;1.40;0.90;;;18.80;76.20;;;;;;6119909;23;20894;-79
2022/09/02 02:34:30;;;;;;;1.40;0.90;;;18.80;76.00;;;;;;6118190;23;20493;-79
2022/09/02 02:36:57;;;;;;;1.40;0.90;;;18.80;76.30;;;;;;6099048;23;20502;-77
2022/09/02 02:39:25;;;;;;;5.57;2.27;;;18.80;76.50;;;;;;6099132;23;20426;-77
2022/09/02 02:41:53;;;;;;;1.40;0.97;;;18.80;76.80;;;;;;6112896;23;20499;-79
2022/09/02 02:44:24;;;;;;;1.43;0.90;;;18.80;77.10;;;;;;6129230;23;20450;-79
2022/09/02 02:46:51;;;;;;;1.43;1.00;;;18.80;77.00;;;;;;6115172;23;20495;-80
2022/09/02 02:49:18;;;;;;;1.43;0.90;;;18.80;76.80;;;;;;6132502;23;20457;-79
2022/09/02 02:52:15;;;;;;;1.50;1.00;;;18.70;77.70;;;;;;6104915;23;20448;-80
2022/09/02 02:54:43;;;;;;;1.43;0.90;;;18.70;77.50;;;;;;6104344;23;20430;-78
2022/09/02 02:57:13;;;;;;;1.43;1.00;;;18.70;77.60;;;;;;6099360;23;20445;-78
2022/09/02 02:59:40;;;;;;;1.47;0.90;;;18.70;77.80;;;;;;6099693;23;20418;-76
2022/09/02 03:02:08;;;;;;;1.40;0.90;;;18.70;78.00;;;;;;6095533;23;20419;-78
2022/09/02 03:04:37;;;;;;;1.40;0.90;;;18.70;77.80;;;;;;6098406;23;20992;-77
2022/09/02 03:07:06;;;;;;;1.40;0.90;;;18.60;77.90;;;;;;6109443;23;20485;-78
2022/09/02 03:09:33;;;;;;;1.40;0.90;;;18.60;77.80;;;;;;6110546;23;20430;-77
2022/09/02 03:12:01;;;;;;;1.40;0.90;;;18.70;78.10;;;;;;6117441;23;20479;-77
2022/09/02 03:14:32;;;;;;;1.40;0.90;;;18.60;77.60;;;;;;6116840;23;20422;-78
2022/09/02 03:17:00;;;;;;;1.43;0.90;;;18.60;77.90;;;;;;6101031;23;20452;-78
2022/09/02 03:19:28;;;;;;;1.40;0.90;;;18.60;77.90;;;;;;6101061;23;20422;-78
2022/09/02 03:21:56;;;;;;;1.47;0.90;;;18.60;77.30;;;;;;6118407;23;20479;-78
2022/09/02 03:24:26;;;;;;;1.40;0.93;;;18.60;77.70;;;;;;6124021;23;20465;-77
2022/09/02 03:26:53;;;;;;;1.43;0.90;;;18.60;77.30;;;;;;6110984;23;20459;-78
2022/09/02 03:29:20;;;;;;;1.47;1.00;;;18.60;77.30;;;;;;6115570;23;20422;-76
2022/09/02 03:31:49;;;;;;;1.50;0.90;;;18.60;77.20;;;;;;6108909;23;20957;-76
2022/09/02 03:34:22;;;;;;;1.50;1.10;;;18.60;77.40;;;;;;6112751;23;20525;-77
2022/09/02 03:36:54;;;;;;;1.40;0.93;;;18.60;77.50;;;;;;6117142;23;20816;-77
2022/09/02 03:39:21;;;;;;;1.47;1.00;;;18.60;77.40;;;;;;6124008;23;20413;-76
2022/09/02 03:41:49;;;;;;;1.40;0.90;;;18.60;77.30;;;;;;6111383;23;20503;-77
2022/09/02 03:44:17;;;;;;;1.40;0.90;;;18.60;77.30;;;;;;6123046;23;20423;-77
2022/09/02 03:46:47;;;;;;;1.43;0.90;;;18.60;77.30;;;;;;6113755;23;20468;-78
2022/09/02 03:49:15;;;;;;;1.40;0.90;;;18.50;77.10;;;;;;6135801;23;20437;-78
2022/09/02 03:51:44;;;;;;;1.47;0.90;;;18.50;77.10;;;;;;6107569;23;20460;-79
2022/09/02 03:54:12;;;;;;;1.43;1.00;;;18.50;77.50;;;;;;6127228;23;20458;-77
2022/09/02 03:56:41;;;;;;;1.43;1.00;;;18.50;77.50;;;;;;6115014;23;20476;-77
2022/09/02 03:59:13;;;;;;;1.47;1.00;;;18.40;77.70;;;;;;6138987;23;20616;-77
2022/09/02 04:01:41;;;;;;;1.40;1.00;;;18.40;77.80;;;;;;6111472;23;20459;-78
2022/09/02 04:04:12;;;;;;;1.50;1.00;;;18.40;77.90;;;;;;6127439;23;20450;-79
2022/09/02 04:06:40;;;;;;;1.40;0.90;;;18.40;78.10;;;;;;6111703;23;21067;-78
2022/09/02 04:09:07;;;;;;;1.43;0.90;;;18.40;78.00;;;;;;6130894;23;20505;-77
2022/09/02 04:11:36;;;;;;;1.50;1.00;;;18.40;78.10;;;;;;6087392;23;20449;-77
2022/09/02 04:14:03;;;;;;;1.50;0.90;;;18.30;78.30;;;;;;6129892;23;20446;-78
2022/09/02 04:16:31;;;;;;;1.40;1.00;;;18.30;78.10;;;;;;6103241;23;21054;-78
2022/09/02 04:22:02;;;;;;;1.50;1.00;;;18.30;78.20;;;;;;6114812;23;20449;-78
2022/09/02 04:24:40;;;;;;;1.40;0.90;;;18.30;78.90;;;;;;6121944;23;20533;-79
2022/09/02 04:27:08;;;;;;;1.40;0.90;;;18.30;78.90;;;;;;6118662;23;20983;-78
2022/09/02 04:30:03;;;;;;;2.23;2.03;;;18.30;79.00;;;;;;6114366;23;20422;-78
2022/09/02 04:32:33;;;;;;;1.40;0.90;;;18.30;79.20;;;;;;6129546;23;20534;-78
2022/09/02 04:35:05;;;;;;;1.47;0.97;;;18.30;79.50;;;;;;6119911;23;20399;-78
2022/09/02 04:37:54;;;;;;;1.47;1.00;;;18.20;79.60;;;;;;6134688;23;20452;-79
2022/09/02 04:44:05;;;;;;;1.50;1.00;;;18.20;79.40;;;;;;5947196;24;20446;-78
2022/09/02 04:46:42;;;;;;;1.40;0.90;;;18.20;79.60;;;;;;6049323;23;20541;-79
2022/09/02 04:49:31;;;;;;;1.47;0.90;;;18.10;79.20;;;;;;6044178;23;20447;-78
2022/09/02 04:52:49;;;;;;;1.50;0.90;;;18.10;79.10;;;;;;6084292;23;20505;-79
2022/09/02 04:55:51;;;;;;;1.47;0.90;;;18.10;79.50;;;;;;6073285;23;20427;-78
2022/09/02 05:04:15;;;;;;;1.47;0.90;;;18.00;80.00;;;;;;6113734;23;20426;-79
2022/09/02 05:07:00;;;;;;;;;;;;;;;;;;;;;
2022/09/02 05:15:59;;;;;;;1.47;0.90;;;18.10;80.00;;;;;;6101195;23;20434;-78
2022/09/02 05:18:37;;;;;;;1.47;0.90;;;18.10;79.90;;;;;;6089376;23;20965;-77
2022/09/02 05:21:10;;;;;;;1.40;0.90;;;18.10;80.00;;;;;;6098670;23;20416;-77
2022/09/02 05:26:45;;;;;;;1.47;1.00;;;18.10;80.20;;;;;;6095624;23;20639;-77
2022/09/02 05:29:16;;;;;;;1.43;0.90;;;18.10;80.40;;;;;;6127384;23;20426;-78
2022/09/02 05:32:02;;;;;;;1.43;0.90;;;18.10;80.40;;;;;;6107102;23;20541;-78
2022/09/02 05:38:33;;;;;;;1.50;1.00;;;18.10;80.90;;;;;;6034059;23;20484;-77
2022/09/02 05:41:37;;;;;;;1.40;1.00;;;18.20;80.90;;;;;;5975551;23;20432;-78
2022/09/02 05:46:40;;;;;;;1.43;0.90;;;18.30;81.00;;;;;;6072007;23;20973;-77
2022/09/02 05:49:07;;;;;;;1.43;0.90;;;18.40;80.90;;;;;;6091853;23;20442;-77
2022/09/02 05:51:41;;;;;;;1.43;0.90;;;18.50;80.30;;;;;;6091714;23;20437;-76
2022/09/02 05:54:10;;;;;;;1.47;0.90;;;18.70;80.10;;;;;;6096053;23;20811;-77
2022/09/02 05:56:39;;;;;;;1.40;0.90;;;18.80;79.80;;;;;;6105047;23;20430;-77
2022/09/02 05:59:09;;;;;;;1.40;0.90;;;19.00;79.50;;;;;;6107086;23;20458;-77
2022/09/02 06:01:37;;;;;;;1.43;0.90;;;19.10;79.10;;;;;;6090860;23;20450;-76
2022/09/02 06:04:10;;;;;;;1.40;0.90;;;19.20;78.80;;;;;;6106485;23;20422;-77
2022/09/02 06:06:43;;;;;;;1.43;0.90;;;19.40;78.10;;;;;;6094087;23;20452;-77
2022/09/02 06:09:13;;;;;;;1.40;0.90;;;19.60;77.60;;;;;;6107103;23;20409;-76
2022/09/02 06:11:43;;;;;;;1.50;1.10;;;19.70;76.80;;;;;;6086619;23;20450;-76
2022/09/02 06:14:12;;;;;;;1.47;0.90;;;19.80;76.50;;;;;;6095168;23;20450;-76
2022/09/02 06:16:41;;;;;;;1.50;0.90;;;20.00;76.00;;;;;;6087060;23;20532;-77
2022/09/02 06:19:12;;;;;;;1.40;0.90;;;20.10;75.90;;;;;;6105427;23;20969;-76
2022/09/02 06:21:41;;;;;;;1.50;0.90;;;20.20;75.70;;;;;;6096565;23;20427;-76
2022/09/02 06:24:11;;;;;;;1.47;0.90;;;20.30;75.40;;;;;;6107908;23;20825;-76
2022/09/02 06:26:41;;;;;;;1.47;0.90;;;20.50;75.20;;;;;;6108927;23;20504;-77
2022/09/02 06:29:10;;;;;;;1.50;0.90;;;20.50;74.50;;;;;;6100740;23;20422;-78
2022/09/02 06:31:40;;;;;;;1.47;0.90;;;20.60;74.60;;;;;;6089674;23;20963;-77
2022/09/02 06:34:13;;;;;;;1.40;0.90;;;20.60;74.20;;;;;;6091123;23;20455;-78
2022/09/02 06:36:42;;;;;;;1.50;0.90;;;20.70;74.40;;;;;;6084342;23;20549;-78
2022/09/02 06:39:21;;;;;;;1.50;0.90;;;20.80;73.80;;;;;;6093401;23;20418;-77
2022/09/02 06:41:50;;;;;;;1.50;1.27;;;20.70;73.70;;;;;;6088261;23;20470;-78
2022/09/02 06:44:20;;;;;;;1.40;0.90;;;20.60;74.70;;;;;;6101864;23;20422;-77
2022/09/02 06:46:52;;;;;;;1.50;0.90;;;20.60;74.80;;;;;;6082763;23;20454;-77
2022/09/02 06:49:22;;;;;;;1.47;0.90;;;20.50;74.20;;;;;;6110989;23;20400;-77
2022/09/02 06:51:52;;;;;;;1.47;0.90;;;20.40;74.30;;;;;;6089522;23;20456;-78
2022/09/02 06:54:27;;;;;;;1.47;0.90;;;20.40;74.70;;;;;;6107438;23;20450;-78
2022/09/02 06:56:55;;;;;;;1.47;0.90;;;20.30;74.60;;;;;;6085733;23;20920;-78
2022/09/02 06:59:23;;;;;;;1.43;0.90;;;20.20;75.00;;;;;;6105272;23;20415;-78
2022/09/02 07:01:51;;;;;;;1.40;0.90;;;20.10;75.30;;;;;;6086796;23;21062;-77
2022/09/02 07:07:08;;;;;;;1.47;0.90;;;20.00;75.80;;;;;;6080180;23;20517;-78
2022/09/02 07:09:35;;;;;;;1.47;0.90;;;19.90;76.20;;;;;;6096169;23;20431;-76
2022/09/02 07:12:07;;;;;;;1.47;0.90;;;19.80;76.30;;;;;;6104828;23;20426;-78
2022/09/02 07:14:38;;;;;;;1.47;0.80;;;19.90;76.50;;;;;;6095927;23;20451;-77
2022/09/02 07:17:06;;;;;;;1.50;0.93;;;20.00;77.00;;;;;;6093275;23;20799;-76
2022/09/02 07:19:44;;;;;;;1.47;0.90;;;20.20;76.60;;;;;;6097189;23;20457;-79
2022/09/02 07:22:11;;;;;;;1.43;0.90;;;20.30;75.90;;;;;;6088943;23;20450;-79
2022/09/02 07:24:39;;;;;;;1.50;0.90;;;20.50;75.70;;;;;;6102886;23;20517;-78
2022/09/02 07:27:13;;;;;;;1.40;0.90;;;20.80;75.00;;;;;;6084454;23;20505;-78
2022/09/02 07:29:44;;;;;;;1.50;0.90;;;20.90;75.00;;;;;;6099487;23;20486;-78
2022/09/02 07:32:14;;;;;;;1.47;0.90;;;21.20;74.40;;;;;;6110163;23;20527;-78
2022/09/02 07:34:53;;;;;;;1.50;0.90;;;21.40;73.00;;;;;;6109501;23;20521;-78
2022/09/02 07:37:34;;;;;;;1.60;1.10;;;21.60;72.80;;;;;;6114230;23;20478;-79
2022/09/02 07:40:15;;;;;;;1.47;0.90;;;21.70;72.50;;;;;;6115571;23;20464;-78
2022/09/02 07:46:22;;;;;;;1.43;0.90;;;22.10;71.60;;;;;;6079907;23;20473;-80
2022/09/02 07:48:50;;;;;;;1.90;1.57;;;22.20;71.50;;;;;;6108422;23;20485;-79
2022/09/02 07:51:20;;;;;;;1.47;0.90;;;22.50;70.60;;;;;;6096248;23;20454;-78
2022/09/02 07:53:49;;;;;;;1.50;0.90;;;22.40;70.30;;;;;;6100406;23;20451;-78
2022/09/02 07:56:16;;;;;;;1.47;0.90;;;22.20;70.90;;;;;;6082997;23;20446;-77
2022/09/02 07:58:45;;;;;;;1.50;0.90;;;22.10;70.90;;;;;;6110291;23;20446;-79
2022/09/02 08:01:13;;;;;;;1.47;0.90;;;22.10;70.80;;;;;;6087611;23;20504;-78
2022/09/02 08:03:43;;;;;;;1.43;0.90;;;21.80;71.50;;;;;;6097156;23;20419;-79
2022/09/02 08:06:11;;;;;;;1.47;0.90;;;21.80;71.90;;;;;;6089611;23;20443;-80
2022/09/02 08:08:42;;;;;;;1.50;1.00;;;21.80;71.90;;;;;;6100945;23;20449;-82
2022/09/02 08:11:11;;;;;;;1.43;0.90;;;21.80;72.50;;;;;;6086519;23;20450;-80
2022/09/02 08:13:40;;;;;;;1.43;0.90;;;22.00;72.40;;;;;;6110425;23;21066;-78
2022/09/02 08:16:08;;;;;;;1.47;0.90;;;22.20;71.80;;;;;;6108641;23;20491;-76
2022/09/02 08:18:39;;;;;;;1.47;0.90;;;22.40;71.40;;;;;;6102334;23;20571;-78
2022/09/02 08:21:07;;;;;;;1.43;0.83;;;22.60;70.90;;;;;;6101688;23;20411;-78
2022/09/02 08:23:38;;;;;;;1.50;1.00;;;22.70;70.30;;;;;;6098436;23;20470;-77
2022/09/02 08:26:47;;;;;;;1.47;0.90;;;22.70;70.20;;;;;;6095899;23;20450;-78
2022/09/02 08:29:24;;;;;;;1.50;0.87;;;22.70;70.40;;;;;;6113161;23;20430;-77
2022/09/02 08:31:57;;;;;;;1.90;1.40;;;22.90;71.40;;;;;;6084696;23;20487;-77
2022/09/02 08:34:27;;;;;;;1.47;0.90;;;23.00;69.70;;;;;;6105507;23;20446;-78
2022/09/02 08:36:55;;;;;;;1.47;0.90;;;23.10;70.20;;;;;;6084396;23;20499;-77
2022/09/02 08:39:22;;;;;;;1.47;0.83;;;23.40;70.30;;;;;;6090767;23;20683;-76
2022/09/02 08:42:14;;;;;;;1.43;0.90;;;23.50;69.40;;;;;;6081022;23;20451;-77
2022/09/02 08:44:42;;;;;;;1.43;0.90;;;23.50;68.90;;;;;;6088996;23;21195;-78
2022/09/02 08:47:22;;;;;;;1.50;0.90;;;23.50;69.00;;;;;;6099204;23;20458;-77
2022/09/02 08:49:53;;;;;;;1.63;1.50;;;23.40;69.00;;;;;;6091520;23;20414;-77
2022/09/02 08:52:31;;;;;;;1.50;0.90;;;23.50;69.10;;;;;;6077581;23;20489;-77
2022/09/02 08:54:58;;;;;;;1.50;0.90;;;23.50;69.90;;;;;;6102881;23;20446;-78
2022/09/02 08:57:31;;;;;;;1.50;1.00;;;23.80;68.50;;;;;;6093246;23;20717;-77
2022/09/02 09:00:01;;;;;;;1.47;0.90;;;24.10;68.40;;;;;;6103825;23;21207;-77
2022/09/02 09:02:36;;;;;;;1.47;0.90;;;24.20;68.00;;;;;;6082636;23;20534;-77
2022/09/02 09:05:17;;;;;;;1.43;0.80;;;24.50;67.20;;;;;;6091873;23;20417;-77
2022/09/02 09:07:58;;;;;;;1.47;0.90;;;24.70;67.30;;;;;;6102103;23;20462;-77
2022/09/02 09:10:31;;;;;;;1.47;0.90;;;25.00;67.10;;;;;;6092202;23;20411;-77
2022/09/02 09:13:37;;;;;;;1.47;0.90;;;25.10;66.50;;;;;;6075161;23;20481;-77
2022/09/02 09:16:14;;;;;;;1.50;0.90;;;25.40;65.40;;;;;;6069086;23;20442;-77
2022/09/02 09:18:48;;;;;;;1.50;1.00;;;25.60;65.30;;;;;;6096735;23;20450;-79
2022/09/02 09:21:15;;;;;;;1.40;0.90;;;25.70;64.90;;;;;;6081239;23;20799;-77
2022/09/02 09:23:44;;;;;;;1.80;1.30;;;25.90;65.70;;;;;;6091604;23;20434;-77
2022/09/02 09:26:14;;;;;;;1.43;0.90;;;26.00;64.40;;;;;;6088904;23;20442;-79
2022/09/02 09:28:46;;;;;;;1.40;0.90;;;26.00;64.40;;;;;;6103378;23;20447;-77
2022/09/02 09:31:18;;;;;;;1.40;0.87;;;26.10;64.30;;;;;;6090711;23;20865;-78
2022/09/02 09:33:58;;;;;;;1.43;0.90;;;26.20;64.20;;;;;;6094026;23;20411;-79
2022/09/02 09:36:48;;;;;;;1.40;0.80;;;26.40;63.50;;;;;;6097073;23;20421;-78
2022/09/02 09:39:22;;;;;;;1.47;0.83;;;26.40;63.00;;;;;;6091671;23;20529;-77
2022/09/02 09:41:54;;;;;;;1.43;0.80;;;26.60;63.00;;;;;;6088391;23;20454;-79
2022/09/02 09:44:43;;;;;;;1.40;0.80;;;26.70;61.90;;;;;;6092359;23;20400;-76
2022/09/02 09:47:18;;;;;;;1.43;0.90;;;26.80;62.00;;;;;;6077995;23;20462;-76
2022/09/02 09:49:46;;;;;;;1.40;0.80;;;26.90;61.60;;;;;;6105608;23;20446;-76
2022/09/02 09:52:24;;;;;;;1.43;0.87;;;26.80;61.10;;;;;;6107255;23;20432;-79
2022/09/02 09:55:10;;;;;;;1.40;0.80;;;26.90;61.90;;;;;;6098452;23;20435;-77
2022/09/02 09:57:40;;;;;;;1.40;0.80;;;26.90;60.70;;;;;;6084596;23;20580;-78
2022/09/02 10:00:19;;;;;;;1.40;0.90;;;26.90;60.50;;;;;;6106318;23;20422;-78
2022/09/02 10:02:54;;;;;;;1.50;0.90;;;26.90;60.60;;;;;;6106769;23;20430;-78
2022/09/02 10:05:46;;;;;;;1.43;0.87;;;27.00;60.00;;;;;;6095842;23;20735;-77
2022/09/02 10:08:22;;;;;;;1.47;0.90;;;27.10;60.30;;;;;;6080805;23;20434;-76
2022/09/02 10:11:01;;;;;;;1.40;0.90;;;27.10;59.90;;;;;;6100734;23;20652;-78
2022/09/02 10:13:35;;;;;;;1.43;0.80;;;27.40;58.40;;;;;;6109160;23;20602;-78
2022/09/02 10:16:26;;;;;;;1.40;0.80;;;27.60;57.70;;;;;;6096224;23;20496;-78
2022/09/02 10:18:57;;;;;;;1.43;0.80;;;27.70;57.00;;;;;;6142489;23;20484;-77
2022/09/02 10:21:47;;;;;;;1.43;0.80;;;27.90;57.40;;;;;;6124856;23;20515;-77
2022/09/02 10:24:55;;;;;;;1.50;0.80;;;28.30;56.80;;;;;;6145522;23;20926;-78
2022/09/02 10:27:35;;;;;;;1.43;0.80;;;28.30;56.00;;;;;;6129140;23;20455;-76
2022/09/02 10:30:20;;;;;;;2.80;2.07;;;28.20;56.10;;;;;;6136077;23;20916;-77
2022/09/02 10:33:30;;;;;;;1.43;0.90;;;28.10;57.20;;;;;;6124168;23;20410;-77
2022/09/02 10:36:05;;;;;;;1.40;0.80;;;28.30;56.10;;;;;;6054187;23;20473;-78
2022/09/02 10:38:42;;;;;;;1.47;0.80;;;28.40;55.20;;;;;;6108633;23;21070;-79
2022/09/02 10:41:23;;;;;;;1.40;0.80;;;28.20;55.70;;;;;;6085318;23;20473;-77
2022/09/02 10:44:11;;;;;;;1.40;0.80;;;28.00;55.30;;;;;;6116771;23;20477;-77
2022/09/02 10:47:16;;;;;;;1.47;0.80;;;27.80;55.40;;;;;;6115318;23;20451;-79
2022/09/02 10:53:23;;;;;;;1.40;0.80;;;27.70;56.00;;;;;;6136042;23;20446;-78
2022/09/02 10:55:57;;;;;;;1.43;0.90;;;27.80;55.00;;;;;;6116215;23;20453;-77
2022/09/02 10:58:50;;;;;;;1.40;0.80;;;27.80;53.50;;;;;;6162345;23;20452;-77
2022/09/02 11:04:23;;;;;;;1.43;0.80;;;27.80;53.80;;;;;;6128013;23;20421;-78
2022/09/02 11:07:15;;;;;;;1.40;0.80;;;27.70;53.60;;;;;;6130915;23;20448;-78
2022/09/02 11:09:56;;;;;;;1.43;0.80;;;27.60;54.40;;;;;;6148237;23;20516;-78
2022/09/02 11:12:59;;;;;;;1.47;0.80;;;27.70;54.40;;;;;;6135985;23;20734;-79
2022/09/02 11:15:41;;;;;;;1.40;0.90;;;27.80;54.00;;;;;;6139863;23;20838;-78
2022/09/02 11:18:21;;;;;;;1.40;0.80;;;27.70;54.00;;;;;;6138376;23;20456;-77
2022/09/02 11:21:03;;;;;;;1.43;0.80;;;27.40;54.50;;;;;;6137950;23;20432;-78
2022/09/02 11:26:26;;;;;;;1.43;0.80;;;27.00;55.40;;;;;;6114147;23;20507;-78
2022/09/02 11:29:03;;;;;;;1.47;0.90;;;26.90;55.30;;;;;;6137015;23;20448;-77
2022/09/02 11:31:38;;;;;;;1.40;0.90;;;27.00;55.40;;;;;;6120817;23;20984;-77
2022/09/02 11:34:46;;;;;;;1.40;0.80;;;27.20;54.60;;;;;;6140688;23;20480;-78
2022/09/02 11:38:20;;;;;;;1.43;0.80;;;27.40;54.20;;;;;;6103609;23;20779;-76
2022/09/02 11:41:13;;;;;;;1.43;0.80;;;27.30;54.60;;;;;;6079146;23;20421;-78
2022/09/02 11:47:05;;;;;;;1.43;0.80;;;27.10;54.70;;;;;;6057642;23;20451;-77
2022/09/02 11:50:40;;;;;;;;;;;;;;;;;;;;;
2022/09/02 12:03:24;;;;;;;1.40;0.80;;;28.20;52.60;;;;;;6118987;23;21249;-78
2022/09/02 12:06:08;;;;;;;1.40;0.80;;;28.10;52.30;;;;;;6117536;23;20421;-76
2022/09/02 12:09:09;;;;;;;1.47;0.80;;;28.40;52.20;;;;;;6139229;23;20510;-78
2022/09/02 12:11:47;;;;;;;1.40;0.80;;;28.40;52.10;;;;;;6106107;23;20559;-80
2022/09/02 12:15:07;;;;;;;1.43;0.80;;;28.40;51.50;;;;;;6133776;23;20492;-77
2022/09/02 12:17:38;;;;;;;1.43;0.80;;;28.60;51.40;;;;;;6104362;23;20476;-78
2022/09/02 12:20:10;;;;;;;1.43;0.80;;;28.80;51.30;;;;;;6137511;23;20444;-79
2022/09/02 12:25:49;;;;;;;1.43;0.80;;;28.80;51.20;;;;;;6122444;23;20439;-79
2022/09/02 12:28:24;;;;;;;1.50;0.90;;;29.00;51.50;;;;;;6108104;23;20473;-78
2022/09/02 12:31:29;;;;;;;1.50;0.90;;;29.10;51.10;;;;;;6122733;23;20409;-75
2022/09/02 12:34:28;;;;;;;1.43;0.90;;;29.30;50.80;;;;;;6112590;23;20425;-79
2022/09/02 12:37:29;;;;;;;1.40;0.80;;;29.20;50.00;;;;;;6108033;23;20444;-77
2022/09/02 12:40:10;;;;;;;1.43;0.80;;;29.10;50.40;;;;;;6131858;23;20425;-79
2022/09/02 12:42:42;;;;;;;1.43;0.80;;;29.20;50.80;;;;;;6108130;23;20459;-75
2022/09/02 12:45:14;;;;;;;1.43;0.80;;;29.30;50.80;;;;;;6123770;23;20925;-78
2022/09/02 12:47:57;;;;;;;1.40;0.80;;;29.30;49.70;;;;;;6107396;23;21247;-77
2022/09/02 12:50:31;;;;;;;1.40;0.80;;;29.10;51.00;;;;;;6135014;23;20424;-77
2022/09/02 12:53:35;;;;;;;1.43;1.00;;;29.30;50.20;;;;;;6107993;23;20449;-78
2022/09/02 12:56:22;;;;;;;1.40;0.80;;;29.00;50.00;;;;;;6097871;23;20459;-76
2022/09/02 12:58:53;;;;;;;1.40;0.90;;;28.90;51.30;;;;;;6121248;23;20441;-77
2022/09/02 13:01:33;;;;;;;2.43;1.60;;;28.90;51.00;;;;;;6122419;23;20500;-78
2022/09/02 13:04:19;;;;;;;1.40;0.80;;;29.00;50.90;;;;;;6121512;23;20437;-78
2022/09/02 13:07:14;;;;;;;1.40;0.80;;;28.90;51.00;;;;;;6111820;23;20449;-77
2022/09/02 13:10:11;;;;;;;1.40;0.80;;;29.00;50.90;;;;;;6131185;23;20799;-76
2022/09/02 13:13:19;;;;;;;1.40;0.80;;;29.00;50.80;;;;;;6076829;23;20807;-76
2022/09/02 13:16:11;;;;;;;1.40;0.80;;;28.80;51.10;;;;;;6125199;23;20870;-78
2022/09/02 13:19:37;;;;;;;1.40;0.80;;;28.90;50.30;;;;;;6115291;23;20473;-76
2022/09/02 13:22:33;;;;;;;1.40;0.80;;;28.70;50.00;;;;;;6110793;23;21014;-76
2022/09/02 13:25:35;;;;;;;1.40;0.80;;;28.70;50.60;;;;;;6121855;23;20413;-77
2022/09/02 13:28:33;;;;;;;1.40;0.80;;;28.80;50.60;;;;;;6107085;23;20468;-78
2022/09/02 13:31:16;;;;;;;1.40;0.80;;;29.00;50.70;;;;;;6115052;23;20451;-77
2022/09/02 13:33:44;;;;;;;1.40;0.80;;;29.20;50.60;;;;;;6128574;23;20408;-77
2022/09/02 13:36:19;;;;;;;1.40;0.80;;;29.30;50.70;;;;;;6119735;23;20540;-77
2022/09/02 13:38:47;;;;;;;1.40;0.80;;;29.30;49.70;;;;;;6131841;23;20445;-77
2022/09/02 13:41:31;;;;;;;1.40;0.80;;;29.50;50.10;;;;;;6119361;23;20435;-77
2022/09/02 13:44:25;;;;;;;1.40;0.80;;;29.60;49.30;;;;;;6130652;23;20453;-77
2022/09/02 13:47:15;;;;;;;1.40;0.80;;;29.80;49.70;;;;;;6109154;23;20420;-78
2022/09/02 13:49:46;;;;;;;1.40;0.80;;;29.80;49.40;;;;;;6122623;23;20434;-78
2022/09/02 13:52:18;;;;;;;1.40;0.90;;;29.60;49.50;;;;;;6109547;23;20507;-77
2022/09/02 13:54:50;;;;;;;1.40;0.80;;;29.50;49.60;;;;;;6121724;23;20432;-76
2022/09/02 13:57:22;;;;;;;1.43;0.80;;;29.30;49.70;;;;;;6108573;23;20460;-77
2022/09/02 13:59:53;;;;;;;1.40;0.80;;;28.80;50.40;;;;;;6119675;23;20911;-77
2022/09/02 14:02:26;;;;;;;1.40;0.80;;;28.70;51.00;;;;;;6103389;23;20483;-76
2022/09/02 14:04:58;;;;;;;1.40;0.80;;;28.80;50.90;;;;;;6119427;23;20964;-77
2022/09/02 14:07:33;;;;;;;1.60;1.10;;;28.90;50.40;;;;;;6128874;23;20963;-78
2022/09/02 14:10:05;;;;;;;1.43;0.80;;;29.10;50.70;;;;;;6129858;23;20401;-77
2022/09/02 14:12:34;;;;;;;1.40;0.80;;;29.20;50.40;;;;;;6119858;23;20441;-77
2022/09/02 14:15:06;;;;;;;1.40;0.80;;;28.90;50.50;;;;;;6127575;23;20775;-79
2022/09/02 14:17:34;;;;;;;1.50;0.90;;;28.70;49.90;;;;;;6110453;23;20453;-78
2022/09/02 14:20:10;;;;;;;1.40;0.80;;;28.60;50.90;;;;;;6140740;23;20424;-77
2022/09/02 14:22:38;;;;;;;1.43;0.80;;;28.40;51.10;;;;;;6111797;23;20452;-77
2022/09/02 14:25:13;;;;;;;1.43;0.80;;;28.10;51.40;;;;;;6127149;23;20912;-76
2022/09/02 14:27:47;;;;;;;1.40;0.90;;;27.80;52.30;;;;;;6132729;23;20471;-76
2022/09/02 14:30:41;;;;;;;1.43;0.90;;;27.60;52.50;;;;;;6123556;23;20447;-77
2022/09/02 14:33:38;;;;;;;1.40;0.90;;;27.60;53.00;;;;;;6105511;23;20448;-75
2022/09/02 14:36:08;;;;;;;1.50;0.80;;;27.50;52.90;;;;;;6117538;23;20449;-76
2022/09/02 14:38:49;;;;;;;1.40;0.90;;;27.30;53.10;;;;;;6133432;23;21038;-76
2022/09/02 14:41:24;;;;;;;1.50;0.80;;;27.30;53.50;;;;;;6134972;23;20819;-76